sensor_id;sensor_type;location;lat;lon;timestamp;P1;durP1;ratioP1;P2;durP2;ratioP2
77400;SDS011;66855;45.414;11.082;2023-04-16T00:01:07;1.20;;;0.50;;
77400;SDS011;66855;45.414;11.082;2023-04-16T00:03:33;3.30;;;0.80;;
77400;SDS011;66855;45.414;11.082;2023-04-16T00:05:59;1.50;;;0.70;;
77400;SDS011;66855;45.414;11.082;2023-04-16T00:08:25;1.30;;;0.50;;
77400;SDS011;66855;45.414;11.082;2023-04-16T00:10:52;0.80;;;0.40;;
77400;SDS011;66855;45.414;11.082;2023-04-16T00:13:18;1.30;;;0.40;;
77400;SDS011;66855;45.414;11.082;2023-04-16T00:15:44;2.80;;;1.10;;
77400;SDS011;66855;45.414;11.082;2023-04-16T00:18:10;1.40;;;0.60;;
77400;SDS011;66855;45.414;11.082;2023-04-16T00:20:36;1.70;;;0.70;;
77400;SDS011;66855;45.414;11.082;2023-04-16T00:23:02;1.90;;;1.10;;
77400;SDS011;66855;45.414;11.082;2023-04-16T00:25:28;1.40;;;0.60;;
77400;SDS011;66855;45.414;11.082;2023-04-16T00:27:54;2.20;;;0.70;;
77400;SDS011;66855;45.414;11.082;2023-04-16T00:30:21;2.00;;;1.00;;
77400;SDS011;66855;45.414;11.082;2023-04-16T00:32:47;1.40;;;0.70;;
77400;SDS011;66855;45.414;11.082;2023-04-16T00:35:13;1.80;;;0.80;;
77400;SDS011;66855;45.414;11.082;2023-04-16T00:37:39;2.20;;;0.80;;
77400;SDS011;66855;45.414;11.082;2023-04-16T00:40:05;1.80;;;0.80;;
77400;SDS011;66855;45.414;11.082;2023-04-16T00:42:32;2.10;;;0.80;;
77400;SDS011;66855;45.414;11.082;2023-04-16T00:44:58;1.30;;;0.60;;
77400;SDS011;66855;45.414;11.082;2023-04-16T00:47:23;3.00;;;0.90;;
77400;SDS011;66855;45.414;11.082;2023-04-16T00:49:50;1.10;;;0.60;;
77400;SDS011;66855;45.414;11.082;2023-04-16T00:52:16;0.80;;;0.80;;
77400;SDS011;66855;45.414;11.082;2023-04-16T00:54:42;1.50;;;0.70;;
77400;SDS011;66855;45.414;11.082;2023-04-16T00:57:08;1.90;;;0.80;;
77400;SDS011;66855;45.414;11.082;2023-04-16T00:59:35;1.10;;;0.50;;
77400;SDS011;66855;45.414;11.082;2023-04-16T01:02:02;1.60;;;0.60;;
77400;SDS011;66855;45.414;11.082;2023-04-16T01:04:28;1.50;;;0.60;;
77400;SDS011;66855;45.414;11.082;2023-04-16T01:06:55;1.60;;;0.90;;
77400;SDS011;66855;45.414;11.082;2023-04-16T01:09:22;1.50;;;0.50;;
77400;SDS011;66855;45.414;11.082;2023-04-16T01:11:47;1.30;;;0.70;;
77400;SDS011;66855;45.414;11.082;2023-04-16T01:14:14;1.70;;;0.70;;
77400;SDS011;66855;45.414;11.082;2023-04-16T01:16:40;1.80;;;1.00;;
77400;SDS011;66855;45.414;11.082;2023-04-16T01:19:06;1.10;;;0.70;;
77400;SDS011;66855;45.414;11.082;2023-04-16T01:21:32;1.80;;;0.90;;
77400;SDS011;66855;45.414;11.082;2023-04-16T01:24:01;2.40;;;0.80;;
77400;SDS011;66855;45.414;11.082;2023-04-16T01:26:28;3.30;;;1.10;;
77400;SDS011;66855;45.414;11.082;2023-04-16T01:28:56;1.70;;;0.80;;
77400;SDS011;66855;45.414;11.082;2023-04-16T01:31:22;1.50;;;1.00;;
77400;SDS011;66855;45.414;11.082;2023-04-16T01:34:00;3.00;;;0.80;;
77400;SDS011;66855;45.414;11.082;2023-04-16T01:36:27;2.40;;;0.70;;
77400;SDS011;66855;45.414;11.082;2023-04-16T01:38:53;0.80;;;0.70;;
77400;SDS011;66855;45.414;11.082;2023-04-16T01:41:20;1.10;;;0.90;;
77400;SDS011;66855;45.414;11.082;2023-04-16T01:43:46;1.70;;;0.70;;
77400;SDS011;66855;45.414;11.082;2023-04-16T01:46:13;1.40;;;0.90;;
77400;SDS011;66855;45.414;11.082;2023-04-16T01:48:42;2.50;;;1.00;;
77400;SDS011;66855;45.414;11.082;2023-04-16T01:51:09;3.10;;;1.10;;
77400;SDS011;66855;45.414;11.082;2023-04-16T01:53:35;1.60;;;1.00;;
77400;SDS011;66855;45.414;11.082;2023-04-16T01:56:02;1.60;;;0.90;;
77400;SDS011;66855;45.414;11.082;2023-04-16T01:58:29;1.30;;;0.70;;
77400;SDS011;66855;45.414;11.082;2023-04-16T02:00:55;1.90;;;0.60;;
77400;SDS011;66855;45.414;11.082;2023-04-16T02:03:22;2.20;;;0.60;;
77400;SDS011;66855;45.414;11.082;2023-04-16T02:05:49;2.50;;;0.80;;
77400;SDS011;66855;45.414;11.082;2023-04-16T02:08:16;2.30;;;0.70;;
77400;SDS011;66855;45.414;11.082;2023-04-16T02:10:44;1.20;;;0.50;;
77400;SDS011;66855;45.414;11.082;2023-04-16T02:13:14;1.00;;;0.60;;
77400;SDS011;66855;45.414;11.082;2023-04-16T02:15:47;1.60;;;0.70;;
77400;SDS011;66855;45.414;11.082;2023-04-16T02:18:19;1.10;;;0.60;;
77400;SDS011;66855;45.414;11.082;2023-04-16T02:20:45;1.70;;;0.60;;
77400;SDS011;66855;45.414;11.082;2023-04-16T02:23:12;1.90;;;0.60;;
77400;SDS011;66855;45.414;11.082;2023-04-16T02:25:46;1.40;;;0.40;;
77400;SDS011;66855;45.414;11.082;2023-04-16T02:28:14;0.50;;;0.30;;
77400;SDS011;66855;45.414;11.082;2023-04-16T02:30:41;3.00;;;0.60;;
77400;SDS011;66855;45.414;11.082;2023-04-16T02:33:08;1.70;;;0.40;;
77400;SDS011;66855;45.414;11.082;2023-04-16T02:35:37;2.10;;;0.50;;
77400;SDS011;66855;45.414;11.082;2023-04-16T02:38:04;1.20;;;0.60;;
77400;SDS011;66855;45.414;11.082;2023-04-16T02:40:32;1.30;;;0.70;;
77400;SDS011;66855;45.414;11.082;2023-04-16T02:43:00;1.20;;;0.40;;
77400;SDS011;66855;45.414;11.082;2023-04-16T02:45:26;2.00;;;0.50;;
77400;SDS011;66855;45.414;11.082;2023-04-16T02:47:52;1.10;;;0.40;;
77400;SDS011;66855;45.414;11.082;2023-04-16T02:50:18;2.30;;;1.20;;
77400;SDS011;66855;45.414;11.082;2023-04-16T02:52:45;2.70;;;0.60;;
77400;SDS011;66855;45.414;11.082;2023-04-16T02:55:11;1.30;;;0.60;;
77400;SDS011;66855;45.414;11.082;2023-04-16T02:57:37;1.20;;;0.50;;
77400;SDS011;66855;45.414;11.082;2023-04-16T03:00:03;1.70;;;0.50;;
77400;SDS011;66855;45.414;11.082;2023-04-16T03:02:30;0.90;;;0.60;;
77400;SDS011;66855;45.414;11.082;2023-04-16T03:04:56;1.30;;;0.50;;
77400;SDS011;66855;45.414;11.082;2023-04-16T03:07:22;1.40;;;0.60;;
77400;SDS011;66855;45.414;11.082;2023-04-16T03:09:49;0.70;;;0.50;;
77400;SDS011;66855;45.414;11.082;2023-04-16T03:12:15;0.40;;;0.40;;
77400;SDS011;66855;45.414;11.082;2023-04-16T03:14:41;0.70;;;0.50;;
77400;SDS011;66855;45.414;11.082;2023-04-16T03:17:07;3.10;;;0.70;;
77400;SDS011;66855;45.414;11.082;2023-04-16T03:19:33;3.90;;;0.60;;
77400;SDS011;66855;45.414;11.082;2023-04-16T03:21:59;1.20;;;0.50;;
77400;SDS011;66855;45.414;11.082;2023-04-16T03:24:25;1.00;;;0.60;;
77400;SDS011;66855;45.414;11.082;2023-04-16T03:26:53;1.00;;;0.60;;
77400;SDS011;66855;45.414;11.082;2023-04-16T03:29:20;1.80;;;0.60;;
77400;SDS011;66855;45.414;11.082;2023-04-16T03:31:46;1.20;;;0.60;;
77400;SDS011;66855;45.414;11.082;2023-04-16T03:34:13;1.70;;;0.70;;
77400;SDS011;66855;45.414;11.082;2023-04-16T03:36:39;2.20;;;0.80;;
77400;SDS011;66855;45.414;11.082;2023-04-16T03:39:05;1.50;;;0.60;;
77400;SDS011;66855;45.414;11.082;2023-04-16T03:41:31;1.60;;;0.60;;
77400;SDS011;66855;45.414;11.082;2023-04-16T03:43:58;1.10;;;0.60;;
77400;SDS011;66855;45.414;11.082;2023-04-16T03:46:24;3.40;;;0.60;;
77400;SDS011;66855;45.414;11.082;2023-04-16T03:48:51;1.20;;;0.70;;
77400;SDS011;66855;45.414;11.082;2023-04-16T03:51:20;0.90;;;0.50;;
77400;SDS011;66855;45.414;11.082;2023-04-16T03:53:46;1.70;;;0.60;;
77400;SDS011;66855;45.414;11.082;2023-04-16T03:56:12;1.30;;;0.60;;
77400;SDS011;66855;45.414;11.082;2023-04-16T03:58:39;1.00;;;0.60;;
77400;SDS011;66855;45.414;11.082;2023-04-16T04:01:06;1.30;;;0.50;;
77400;SDS011;66855;45.414;11.082;2023-04-16T04:03:34;1.70;;;0.60;;
77400;SDS011;66855;45.414;11.082;2023-04-16T04:06:00;1.80;;;0.70;;
77400;SDS011;66855;45.414;11.082;2023-04-16T04:08:32;0.90;;;0.50;;
77400;SDS011;66855;45.414;11.082;2023-04-16T04:10:58;2.10;;;0.70;;
77400;SDS011;66855;45.414;11.082;2023-04-16T04:13:24;2.10;;;0.60;;
77400;SDS011;66855;45.414;11.082;2023-04-16T04:15:50;3.30;;;0.60;;
77400;SDS011;66855;45.414;11.082;2023-04-16T04:18:17;4.30;;;0.80;;
77400;SDS011;66855;45.414;11.082;2023-04-16T04:20:43;1.30;;;0.60;;
77400;SDS011;66855;45.414;11.082;2023-04-16T04:23:12;1.10;;;0.80;;
77400;SDS011;66855;45.414;11.082;2023-04-16T04:25:38;1.30;;;0.90;;
77400;SDS011;66855;45.414;11.082;2023-04-16T04:28:04;2.00;;;0.80;;
77400;SDS011;66855;45.414;11.082;2023-04-16T04:30:30;2.40;;;1.00;;
77400;SDS011;66855;45.414;11.082;2023-04-16T04:32:56;1.10;;;0.80;;
77400;SDS011;66855;45.414;11.082;2023-04-16T04:35:23;1.70;;;0.80;;
77400;SDS011;66855;45.414;11.082;2023-04-16T04:37:49;2.00;;;1.00;;
77400;SDS011;66855;45.414;11.082;2023-04-16T04:40:17;1.60;;;0.90;;
77400;SDS011;66855;45.414;11.082;2023-04-16T04:42:44;2.50;;;1.00;;
77400;SDS011;66855;45.414;11.082;2023-04-16T04:45:10;2.10;;;1.00;;
77400;SDS011;66855;45.414;11.082;2023-04-16T04:47:36;1.10;;;0.80;;
77400;SDS011;66855;45.414;11.082;2023-04-16T04:50:02;1.80;;;0.90;;
77400;SDS011;66855;45.414;11.082;2023-04-16T04:52:30;1.60;;;0.80;;
77400;SDS011;66855;45.414;11.082;2023-04-16T04:54:56;3.00;;;1.50;;
77400;SDS011;66855;45.414;11.082;2023-04-16T04:57:22;1.90;;;1.20;;
77400;SDS011;66855;45.414;11.082;2023-04-16T04:59:51;2.30;;;1.00;;
77400;SDS011;66855;45.414;11.082;2023-04-16T05:02:17;2.60;;;1.00;;
77400;SDS011;66855;45.414;11.082;2023-04-16T05:04:44;2.50;;;1.00;;
77400;SDS011;66855;45.414;11.082;2023-04-16T05:07:10;3.50;;;1.10;;
77400;SDS011;66855;45.414;11.082;2023-04-16T05:09:35;2.00;;;1.00;;
77400;SDS011;66855;45.414;11.082;2023-04-16T05:12:02;2.30;;;1.20;;
77400;SDS011;66855;45.414;11.082;2023-04-16T05:14:28;2.30;;;0.80;;
77400;SDS011;66855;45.414;11.082;2023-04-16T05:16:55;2.50;;;0.90;;
77400;SDS011;66855;45.414;11.082;2023-04-16T05:19:21;2.20;;;1.00;;
77400;SDS011;66855;45.414;11.082;2023-04-16T05:21:47;3.30;;;1.50;;
77400;SDS011;66855;45.414;11.082;2023-04-16T05:24:13;1.50;;;1.10;;
77400;SDS011;66855;45.414;11.082;2023-04-16T05:26:40;1.30;;;1.00;;
77400;SDS011;66855;45.414;11.082;2023-04-16T05:29:06;2.90;;;1.60;;
77400;SDS011;66855;45.414;11.082;2023-04-16T05:31:32;3.30;;;1.20;;
77400;SDS011;66855;45.414;11.082;2023-04-16T05:33:58;3.90;;;1.60;;
77400;SDS011;66855;45.414;11.082;2023-04-16T05:36:24;2.80;;;1.60;;
77400;SDS011;66855;45.414;11.082;2023-04-16T05:38:50;2.80;;;1.40;;
77400;SDS011;66855;45.414;11.082;2023-04-16T05:41:16;2.00;;;1.40;;
77400;SDS011;66855;45.414;11.082;2023-04-16T05:43:45;2.20;;;1.10;;
77400;SDS011;66855;45.414;11.082;2023-04-16T05:46:11;6.80;;;1.70;;
77400;SDS011;66855;45.414;11.082;2023-04-16T05:48:37;3.40;;;1.80;;
77400;SDS011;66855;45.414;11.082;2023-04-16T05:51:03;4.70;;;1.60;;
77400;SDS011;66855;45.414;11.082;2023-04-16T05:53:29;3.30;;;1.60;;
77400;SDS011;66855;45.414;11.082;2023-04-16T05:55:55;3.20;;;1.60;;
77400;SDS011;66855;45.414;11.082;2023-04-16T05:58:21;4.70;;;1.80;;
77400;SDS011;66855;45.414;11.082;2023-04-16T06:00:47;3.80;;;1.60;;
77400;SDS011;66855;45.414;11.082;2023-04-16T06:03:13;4.10;;;1.80;;
77400;SDS011;66855;45.414;11.082;2023-04-16T06:05:40;3.40;;;1.40;;
77400;SDS011;66855;45.414;11.082;2023-04-16T06:08:06;5.80;;;1.50;;
77400;SDS011;66855;45.414;11.082;2023-04-16T06:10:32;2.10;;;1.80;;
77400;SDS011;66855;45.414;11.082;2023-04-16T06:12:58;2.60;;;1.40;;
77400;SDS011;66855;45.414;11.082;2023-04-16T06:15:24;3.50;;;1.70;;
77400;SDS011;66855;45.414;11.082;2023-04-16T06:17:50;4.10;;;1.80;;
77400;SDS011;66855;45.414;11.082;2023-04-16T06:20:16;3.90;;;1.50;;
77400;SDS011;66855;45.414;11.082;2023-04-16T06:22:42;3.70;;;1.70;;
77400;SDS011;66855;45.414;11.082;2023-04-16T06:25:08;3.30;;;1.80;;
77400;SDS011;66855;45.414;11.082;2023-04-16T06:27:35;2.70;;;1.70;;
77400;SDS011;66855;45.414;11.082;2023-04-16T06:30:01;3.50;;;1.70;;
77400;SDS011;66855;45.414;11.082;2023-04-16T06:32:28;3.50;;;1.60;;
77400;SDS011;66855;45.414;11.082;2023-04-16T06:34:54;4.30;;;1.80;;
77400;SDS011;66855;45.414;11.082;2023-04-16T06:37:23;2.90;;;1.70;;
77400;SDS011;66855;45.414;11.082;2023-04-16T06:39:51;3.20;;;2.00;;
77400;SDS011;66855;45.414;11.082;2023-04-16T06:42:18;3.00;;;2.00;;
77400;SDS011;66855;45.414;11.082;2023-04-16T06:44:45;4.60;;;1.80;;
77400;SDS011;66855;45.414;11.082;2023-04-16T06:47:11;3.60;;;1.70;;
77400;SDS011;66855;45.414;11.082;2023-04-16T06:49:37;3.20;;;1.50;;
77400;SDS011;66855;45.414;11.082;2023-04-16T06:52:04;4.10;;;1.70;;
77400;SDS011;66855;45.414;11.082;2023-04-16T06:54:31;4.20;;;1.60;;
77400;SDS011;66855;45.414;11.082;2023-04-16T06:56:57;3.20;;;1.80;;
77400;SDS011;66855;45.414;11.082;2023-04-16T06:59:23;4.40;;;2.00;;
77400;SDS011;66855;45.414;11.082;2023-04-16T07:01:50;4.00;;;1.70;;
77400;SDS011;66855;45.414;11.082;2023-04-16T07:04:17;3.40;;;2.10;;
77400;SDS011;66855;45.414;11.082;2023-04-16T07:06:43;3.80;;;2.10;;
77400;SDS011;66855;45.414;11.082;2023-04-16T07:09:09;4.80;;;2.10;;
77400;SDS011;66855;45.414;11.082;2023-04-16T07:11:35;4.30;;;2.40;;
77400;SDS011;66855;45.414;11.082;2023-04-16T07:14:01;3.70;;;2.10;;
77400;SDS011;66855;45.414;11.082;2023-04-16T07:16:27;5.20;;;2.00;;
77400;SDS011;66855;45.414;11.082;2023-04-16T07:18:54;4.20;;;2.20;;
77400;SDS011;66855;45.414;11.082;2023-04-16T07:21:21;2.60;;;2.20;;
77400;SDS011;66855;45.414;11.082;2023-04-16T07:23:47;3.60;;;1.80;;
77400;SDS011;66855;45.414;11.082;2023-04-16T07:26:13;5.00;;;2.20;;
77400;SDS011;66855;45.414;11.082;2023-04-16T07:28:39;6.10;;;2.10;;
77400;SDS011;66855;45.414;11.082;2023-04-16T07:31:05;3.00;;;2.10;;
77400;SDS011;66855;45.414;11.082;2023-04-16T07:33:31;3.60;;;2.40;;
77400;SDS011;66855;45.414;11.082;2023-04-16T07:35:57;3.20;;;2.20;;
77400;SDS011;66855;45.414;11.082;2023-04-16T07:38:23;6.70;;;2.20;;
77400;SDS011;66855;45.414;11.082;2023-04-16T07:40:50;4.50;;;2.30;;
77400;SDS011;66855;45.414;11.082;2023-04-16T07:43:17;4.50;;;2.40;;
77400;SDS011;66855;45.414;11.082;2023-04-16T07:45:43;4.30;;;2.40;;
77400;SDS011;66855;45.414;11.082;2023-04-16T07:48:10;9.50;;;2.80;;
77400;SDS011;66855;45.414;11.082;2023-04-16T07:50:36;5.30;;;3.20;;
77400;SDS011;66855;45.414;11.082;2023-04-16T07:53:02;6.70;;;3.30;;
77400;SDS011;66855;45.414;11.082;2023-04-16T07:55:28;5.50;;;3.30;;
77400;SDS011;66855;45.414;11.082;2023-04-16T07:57:54;5.70;;;3.20;;
77400;SDS011;66855;45.414;11.082;2023-04-16T08:00:20;7.90;;;3.50;;
77400;SDS011;66855;45.414;11.082;2023-04-16T08:02:46;8.20;;;3.50;;
77400;SDS011;66855;45.414;11.082;2023-04-16T08:05:12;5.00;;;3.90;;
77400;SDS011;66855;45.414;11.082;2023-04-16T08:07:38;6.90;;;4.00;;
77400;SDS011;66855;45.414;11.082;2023-04-16T08:10:05;6.80;;;3.80;;
77400;SDS011;66855;45.414;11.082;2023-04-16T08:12:31;4.70;;;3.40;;
77400;SDS011;66855;45.414;11.082;2023-04-16T08:14:57;7.60;;;3.70;;
77400;SDS011;66855;45.414;11.082;2023-04-16T08:17:23;7.70;;;3.90;;
77400;SDS011;66855;45.414;11.082;2023-04-16T08:19:49;7.90;;;5.00;;
77400;SDS011;66855;45.414;11.082;2023-04-16T08:22:15;4.80;;;3.80;;
77400;SDS011;66855;45.414;11.082;2023-04-16T08:24:41;6.90;;;4.00;;
77400;SDS011;66855;45.414;11.082;2023-04-16T08:27:07;9.40;;;4.30;;
77400;SDS011;66855;45.414;11.082;2023-04-16T08:29:44;6.90;;;4.40;;
77400;SDS011;66855;45.414;11.082;2023-04-16T08:32:10;6.70;;;4.40;;
77400;SDS011;66855;45.414;11.082;2023-04-16T08:34:36;5.20;;;3.80;;
77400;SDS011;66855;45.414;11.082;2023-04-16T08:37:02;5.00;;;3.70;;
77400;SDS011;66855;45.414;11.082;2023-04-16T08:39:28;7.60;;;3.90;;
77400;SDS011;66855;45.414;11.082;2023-04-16T08:41:54;6.50;;;3.70;;
77400;SDS011;66855;45.414;11.082;2023-04-16T08:44:25;5.60;;;3.30;;
77400;SDS011;66855;45.414;11.082;2023-04-16T08:46:55;5.00;;;3.80;;
77400;SDS011;66855;45.414;11.082;2023-04-16T08:49:24;5.60;;;3.50;;
77400;SDS011;66855;45.414;11.082;2023-04-16T08:51:52;4.80;;;2.30;;
77400;SDS011;66855;45.414;11.082;2023-04-16T08:57:22;5.00;;;3.20;;
77400;SDS011;66855;45.414;11.082;2023-04-16T08:59:49;4.50;;;2.70;;
77400;SDS011;66855;45.414;11.082;2023-04-16T09:02:16;4.20;;;3.00;;
77400;SDS011;66855;45.414;11.082;2023-04-16T09:04:43;4.00;;;3.30;;
77400;SDS011;66855;45.414;11.082;2023-04-16T09:07:10;8.30;;;5.40;;
77400;SDS011;66855;45.414;11.082;2023-04-16T09:09:36;4.90;;;3.50;;
77400;SDS011;66855;45.414;11.082;2023-04-16T09:12:03;4.20;;;2.40;;
77400;SDS011;66855;45.414;11.082;2023-04-16T09:14:30;3.40;;;2.90;;
77400;SDS011;66855;45.414;11.082;2023-04-16T09:16:56;4.10;;;2.90;;
77400;SDS011;66855;45.414;11.082;2023-04-16T09:19:25;4.50;;;2.90;;
77400;SDS011;66855;45.414;11.082;2023-04-16T09:21:52;4.90;;;3.00;;
77400;SDS011;66855;45.414;11.082;2023-04-16T09:24:20;3.70;;;2.50;;
77400;SDS011;66855;45.414;11.082;2023-04-16T09:26:46;4.20;;;2.40;;
77400;SDS011;66855;45.414;11.082;2023-04-16T09:29:25;4.20;;;2.60;;
77400;SDS011;66855;45.414;11.082;2023-04-16T09:32:01;4.00;;;2.90;;
77400;SDS011;66855;45.414;11.082;2023-04-16T09:34:30;4.40;;;3.00;;
77400;SDS011;66855;45.414;11.082;2023-04-16T09:37:12;5.60;;;3.50;;
77400;SDS011;66855;45.414;11.082;2023-04-16T09:39:42;3.80;;;3.40;;
77400;SDS011;66855;45.414;11.082;2023-04-16T09:42:09;5.50;;;3.10;;
77400;SDS011;66855;45.414;11.082;2023-04-16T09:44:36;4.60;;;3.40;;
77400;SDS011;66855;45.414;11.082;2023-04-16T09:47:04;5.60;;;3.40;;
77400;SDS011;66855;45.414;11.082;2023-04-16T09:49:34;5.70;;;3.40;;
77400;SDS011;66855;45.414;11.082;2023-04-16T09:52:03;4.00;;;3.60;;
77400;SDS011;66855;45.414;11.082;2023-04-16T09:54:34;4.20;;;3.20;;
77400;SDS011;66855;45.414;11.082;2023-04-16T09:57:00;4.50;;;2.90;;
77400;SDS011;66855;45.414;11.082;2023-04-16T09:59:26;4.50;;;2.80;;
77400;SDS011;66855;45.414;11.082;2023-04-16T10:01:57;4.60;;;3.00;;
77400;SDS011;66855;45.414;11.082;2023-04-16T10:04:48;4.60;;;3.00;;
77400;SDS011;66855;45.414;11.082;2023-04-16T10:07:15;4.00;;;3.00;;
77400;SDS011;66855;45.414;11.082;2023-04-16T10:09:41;4.10;;;3.10;;
77400;SDS011;66855;45.414;11.082;2023-04-16T10:12:08;5.20;;;3.40;;
77400;SDS011;66855;45.414;11.082;2023-04-16T10:14:35;5.40;;;2.90;;
77400;SDS011;66855;45.414;11.082;2023-04-16T10:17:02;5.00;;;3.00;;
77400;SDS011;66855;45.414;11.082;2023-04-16T10:19:29;3.40;;;2.80;;
77400;SDS011;66855;45.414;11.082;2023-04-16T10:21:58;17.50;;;13.60;;
77400;SDS011;66855;45.414;11.082;2023-04-16T10:24:24;9.20;;;7.50;;
77400;SDS011;66855;45.414;11.082;2023-04-16T10:26:51;8.30;;;7.00;;
77400;SDS011;66855;45.414;11.082;2023-04-16T10:29:18;3.30;;;2.20;;
77400;SDS011;66855;45.414;11.082;2023-04-16T10:31:46;4.60;;;3.30;;
77400;SDS011;66855;45.414;11.082;2023-04-16T10:34:12;3.40;;;2.40;;
77400;SDS011;66855;45.414;11.082;2023-04-16T10:36:39;3.10;;;2.10;;
77400;SDS011;66855;45.414;11.082;2023-04-16T10:39:10;2.50;;;2.20;;
77400;SDS011;66855;45.414;11.082;2023-04-16T10:41:42;4.50;;;3.50;;
77400;SDS011;66855;45.414;11.082;2023-04-16T10:44:08;50.00;;;28.40;;
77400;SDS011;66855;45.414;11.082;2023-04-16T10:46:36;41.90;;;23.70;;
77400;SDS011;66855;45.414;11.082;2023-04-16T10:49:13;4.90;;;3.20;;
77400;SDS011;66855;45.414;11.082;2023-04-16T10:51:39;4.50;;;3.00;;
77400;SDS011;66855;45.414;11.082;2023-04-16T10:56:39;16.50;;;10.90;;
77400;SDS011;66855;45.414;11.082;2023-04-16T10:59:06;10.40;;;6.60;;
77400;SDS011;66855;45.414;11.082;2023-04-16T11:01:34;11.20;;;7.40;;
77400;SDS011;66855;45.414;11.082;2023-04-16T11:09:44;20.30;;;15.30;;
77400;SDS011;66855;45.414;11.082;2023-04-16T11:12:15;5.90;;;4.70;;
77400;SDS011;66855;45.414;11.082;2023-04-16T11:14:53;10.20;;;7.40;;
77400;SDS011;66855;45.414;11.082;2023-04-16T11:17:21;6.50;;;5.30;;
77400;SDS011;66855;45.414;11.082;2023-04-16T11:19:48;5.90;;;4.40;;
77400;SDS011;66855;45.414;11.082;2023-04-16T11:22:15;3.80;;;2.70;;
77400;SDS011;66855;45.414;11.082;2023-04-16T11:24:42;3.10;;;2.40;;
77400;SDS011;66855;45.414;11.082;2023-04-16T11:27:10;2.50;;;2.30;;
77400;SDS011;66855;45.414;11.082;2023-04-16T11:29:41;3.10;;;2.10;;
77400;SDS011;66855;45.414;11.082;2023-04-16T11:32:19;3.10;;;2.00;;
77400;SDS011;66855;45.414;11.082;2023-04-16T11:34:46;2.90;;;2.60;;
77400;SDS011;66855;45.414;11.082;2023-04-16T11:37:12;2.60;;;2.20;;
77400;SDS011;66855;45.414;11.082;2023-04-16T11:39:49;2.40;;;1.70;;
77400;SDS011;66855;45.414;11.082;2023-04-16T11:42:19;2.70;;;2.10;;
77400;SDS011;66855;45.414;11.082;2023-04-16T11:44:54;3.50;;;2.30;;
77400;SDS011;66855;45.414;11.082;2023-04-16T11:47:25;3.00;;;2.40;;
77400;SDS011;66855;45.414;11.082;2023-04-16T11:49:52;2.90;;;2.40;;
77400;SDS011;66855;45.414;11.082;2023-04-16T11:52:30;3.60;;;2.00;;
77400;SDS011;66855;45.414;11.082;2023-04-16T11:55:02;2.60;;;2.00;;
77400;SDS011;66855;45.414;11.082;2023-04-16T11:57:31;2.60;;;2.30;;
77400;SDS011;66855;45.414;11.082;2023-04-16T11:59:57;2.90;;;2.00;;
77400;SDS011;66855;45.414;11.082;2023-04-16T12:05:07;3.00;;;2.00;;
77400;SDS011;66855;45.414;11.082;2023-04-16T12:08:01;3.30;;;2.50;;
77400;SDS011;66855;45.414;11.082;2023-04-16T12:10:59;2.70;;;2.20;;
77400;SDS011;66855;45.414;11.082;2023-04-16T12:13:25;3.40;;;2.00;;
77400;SDS011;66855;45.414;11.082;2023-04-16T12:15:53;2.50;;;1.70;;
77400;SDS011;66855;45.414;11.082;2023-04-16T12:18:24;3.90;;;2.10;;
77400;SDS011;66855;45.414;11.082;2023-04-16T12:20:54;3.40;;;2.10;;
77400;SDS011;66855;45.414;11.082;2023-04-16T12:23:32;2.80;;;2.30;;
77400;SDS011;66855;45.414;11.082;2023-04-16T12:26:05;2.40;;;2.00;;
77400;SDS011;66855;45.414;11.082;2023-04-16T12:28:40;3.50;;;2.10;;
77400;SDS011;66855;45.414;11.082;2023-04-16T12:31:06;2.70;;;2.30;;
77400;SDS011;66855;45.414;11.082;2023-04-16T12:33:33;2.90;;;2.10;;
77400;SDS011;66855;45.414;11.082;2023-04-16T12:35:59;2.70;;;2.10;;
77400;SDS011;66855;45.414;11.082;2023-04-16T12:38:26;2.70;;;2.20;;
77400;SDS011;66855;45.414;11.082;2023-04-16T12:40:54;3.60;;;2.50;;
77400;SDS011;66855;45.414;11.082;2023-04-16T12:43:21;3.80;;;2.40;;
77400;SDS011;66855;45.414;11.082;2023-04-16T12:45:48;2.60;;;2.40;;
77400;SDS011;66855;45.414;11.082;2023-04-16T12:48:24;3.80;;;2.60;;
77400;SDS011;66855;45.414;11.082;2023-04-16T12:51:33;3.20;;;2.80;;
77400;SDS011;66855;45.414;11.082;2023-04-16T12:54:01;3.30;;;2.40;;
77400;SDS011;66855;45.414;11.082;2023-04-16T12:56:29;3.50;;;2.50;;
77400;SDS011;66855;45.414;11.082;2023-04-16T12:58:59;3.40;;;2.50;;
77400;SDS011;66855;45.414;11.082;2023-04-16T13:01:25;3.30;;;2.70;;
77400;SDS011;66855;45.414;11.082;2023-04-16T13:03:51;3.30;;;2.60;;
77400;SDS011;66855;45.414;11.082;2023-04-16T13:06:18;3.90;;;3.00;;
77400;SDS011;66855;45.414;11.082;2023-04-16T13:08:45;3.20;;;2.50;;
77400;SDS011;66855;45.414;11.082;2023-04-16T13:11:11;2.50;;;2.20;;
77400;SDS011;66855;45.414;11.082;2023-04-16T13:13:37;3.70;;;2.20;;
77400;SDS011;66855;45.414;11.082;2023-04-16T13:16:03;3.20;;;2.30;;
77400;SDS011;66855;45.414;11.082;2023-04-16T13:18:31;2.90;;;2.60;;
77400;SDS011;66855;45.414;11.082;2023-04-16T13:20:57;3.60;;;2.60;;
77400;SDS011;66855;45.414;11.082;2023-04-16T13:23:24;5.00;;;2.60;;
77400;SDS011;66855;45.414;11.082;2023-04-16T13:25:50;3.80;;;2.60;;
77400;SDS011;66855;45.414;11.082;2023-04-16T13:28:16;3.30;;;2.60;;
77400;SDS011;66855;45.414;11.082;2023-04-16T13:30:42;3.20;;;2.70;;
77400;SDS011;66855;45.414;11.082;2023-04-16T13:33:08;3.20;;;2.50;;
77400;SDS011;66855;45.414;11.082;2023-04-16T13:35:34;3.50;;;2.30;;
77400;SDS011;66855;45.414;11.082;2023-04-16T13:38:00;4.60;;;2.90;;
77400;SDS011;66855;45.414;11.082;2023-04-16T13:40:26;3.30;;;2.70;;
77400;SDS011;66855;45.414;11.082;2023-04-16T13:42:52;2.70;;;2.50;;
77400;SDS011;66855;45.414;11.082;2023-04-16T13:48:06;4.20;;;2.50;;
77400;SDS011;66855;45.414;11.082;2023-04-16T13:50:32;3.20;;;2.90;;
77400;SDS011;66855;45.414;11.082;2023-04-16T13:52:59;3.30;;;3.00;;
77400;SDS011;66855;45.414;11.082;2023-04-16T13:55:26;3.90;;;2.80;;
77400;SDS011;66855;45.414;11.082;2023-04-16T13:57:52;3.60;;;2.90;;
77400;SDS011;66855;45.414;11.082;2023-04-16T14:00:18;3.50;;;2.60;;
77400;SDS011;66855;45.414;11.082;2023-04-16T14:02:44;3.80;;;2.80;;
77400;SDS011;66855;45.414;11.082;2023-04-16T14:05:11;4.30;;;2.70;;
77400;SDS011;66855;45.414;11.082;2023-04-16T14:07:37;3.20;;;2.80;;
77400;SDS011;66855;45.414;11.082;2023-04-16T14:10:03;3.50;;;2.90;;
77400;SDS011;66855;45.414;11.082;2023-04-16T14:12:29;3.40;;;2.50;;
77400;SDS011;66855;45.414;11.082;2023-04-16T14:14:56;2.90;;;2.60;;
77400;SDS011;66855;45.414;11.082;2023-04-16T14:17:22;3.80;;;2.70;;
77400;SDS011;66855;45.414;11.082;2023-04-16T14:19:48;4.60;;;2.40;;
77400;SDS011;66855;45.414;11.082;2023-04-16T14:22:14;2.80;;;2.30;;
77400;SDS011;66855;45.414;11.082;2023-04-16T14:24:42;3.20;;;2.50;;
77400;SDS011;66855;45.414;11.082;2023-04-16T14:27:09;2.40;;;2.20;;
77400;SDS011;66855;45.414;11.082;2023-04-16T14:29:35;4.10;;;2.30;;
77400;SDS011;66855;45.414;11.082;2023-04-16T14:32:01;2.60;;;2.20;;
77400;SDS011;66855;45.414;11.082;2023-04-16T14:34:29;3.60;;;2.30;;
77400;SDS011;66855;45.414;11.082;2023-04-16T14:36:55;3.00;;;2.40;;
77400;SDS011;66855;45.414;11.082;2023-04-16T14:39:21;3.00;;;2.00;;
77400;SDS011;66855;45.414;11.082;2023-04-16T14:41:48;2.60;;;1.90;;
77400;SDS011;66855;45.414;11.082;2023-04-16T14:44:14;3.00;;;2.50;;
77400;SDS011;66855;45.414;11.082;2023-04-16T14:46:40;2.80;;;2.30;;
77400;SDS011;66855;45.414;11.082;2023-04-16T14:49:06;2.40;;;2.20;;
77400;SDS011;66855;45.414;11.082;2023-04-16T14:51:37;4.20;;;2.80;;